createdAt,value
2023-02-06T16:22:27.660Z,49.58
2023-02-06T16:25:13.378Z,46.92
2023-02-06T16:27:45.524Z,41.85
2023-02-06T16:30:23.694Z,53.90
2023-02-06T16:32:51.526Z,37.63
2023-02-06T16:35:18.228Z,38.45
2023-02-06T16:37:45.438Z,36.22
2023-02-06T16:40:12.140Z,35.30
2023-02-06T16:42:46.655Z,33.65
2023-02-06T16:45:19.109Z,35.90
2023-02-06T16:50:13.337Z,35.03
2023-02-06T16:53:00.656Z,40.35
2023-02-06T16:55:28.957Z,41.85
2023-02-06T16:57:59.537Z,35.42
2023-02-06T17:00:31.249Z,40.03
2023-02-06T17:02:58.895Z,41.80
2023-02-06T17:05:28.234Z,41.10
2023-02-06T17:07:55.486Z,39.17
2023-02-06T17:10:24.875Z,36.58
2023-02-06T17:12:51.638Z,40.90
2023-02-06T17:15:19.153Z,39.63
2023-02-06T17:17:46.109Z,42.70
2023-02-06T17:20:45.120Z,36.03
2023-02-06T17:23:11.935Z,38.13
2023-02-06T17:25:40.539Z,43.42
2023-02-06T17:28:09.079Z,36.90
2023-02-06T17:30:37.887Z,40.97
2023-02-06T17:33:06.307Z,42.47
2023-02-06T17:35:36.681Z,45.88
2023-02-06T17:38:07.969Z,45.97
2023-02-06T17:40:36.620Z,43.83
2023-02-06T17:43:04.722Z,49.22
2023-02-06T17:45:32.321Z,52.95
2023-02-06T17:47:59.297Z,49.63
2023-02-06T17:50:27.668Z,57.08
2023-02-06T17:52:55.826Z,43.72
2023-02-06T17:55:23.966Z,42.60
2023-02-06T17:57:51.502Z,45.45
2023-02-06T18:00:20.371Z,45.47
2023-02-06T18:02:47.066Z,43.00
2023-02-06T18:05:13.703Z,40.20
2023-02-06T18:07:41.144Z,43.08
2023-02-06T18:10:09.245Z,44.03
2023-02-06T18:12:35.960Z,49.65
2023-02-06T18:15:03.922Z,56.00
2023-02-06T18:17:31.171Z,52.75
2023-02-06T18:19:57.792Z,54.60
2023-02-06T18:22:24.446Z,55.45
2023-02-06T18:24:51.390Z,50.50
2023-02-06T18:27:19.359Z,52.15
2023-02-06T18:29:50.843Z,52.47
2023-02-06T18:32:19.371Z,57.47
2023-02-06T18:34:46.611Z,49.67
2023-02-06T18:37:13.248Z,48.25
2023-02-06T18:39:39.826Z,50.45
2023-02-06T18:42:24.922Z,46.33
2023-02-06T18:44:51.608Z,54.17
2023-02-06T18:47:18.925Z,48.28
2023-02-06T18:49:45.936Z,45.92
2023-02-06T18:52:12.909Z,45.45
2023-02-06T18:54:39.705Z,48.50
2023-02-06T18:57:07.071Z,47.75
2023-02-06T18:59:34.670Z,48.95
2023-02-06T19:02:01.631Z,43.88
2023-02-06T19:04:28.313Z,45.55
2023-02-06T19:06:54.962Z,44.97
2023-02-06T19:09:21.652Z,48.38
2023-02-06T19:11:48.898Z,43.35
2023-02-06T19:14:18.038Z,42.38
2023-02-06T19:16:47.420Z,43.80
2023-02-06T19:19:14.754Z,42.97
2023-02-06T19:21:42.375Z,48.63
2023-02-06T19:24:13.003Z,48.28
2023-02-06T19:26:40.512Z,50.05
2023-02-06T19:29:07.734Z,52.70
2023-02-06T19:31:36.032Z,51.72
2023-02-06T19:34:02.746Z,62.67
2023-02-06T19:36:30.159Z,54.55
2023-02-06T19:39:02.451Z,55.15
2023-02-06T19:41:32.468Z,54.92
2023-02-06T19:44:03.081Z,53.10
2023-02-06T19:46:29.814Z,54.83
2023-02-06T19:48:56.522Z,59.17
2023-02-06T19:51:29.006Z,59.85
2023-02-06T19:56:25.865Z,57.00
2023-02-06T19:58:57.377Z,53.75
2023-02-06T20:01:24.968Z,59.50
2023-02-06T20:03:52.319Z,52.17
2023-02-06T20:06:19.381Z,56.33
2023-02-06T20:08:46.583Z,57.75
2023-02-06T20:11:20.671Z,60.17
2023-02-06T20:13:48.300Z,60.10
2023-02-06T20:16:20.859Z,56.97
2023-02-06T20:19:36.145Z,57.83
2023-02-06T20:22:04.458Z,50.50
2023-02-06T20:24:32.478Z,56.03
2023-02-06T20:27:01.997Z,53.15
2023-02-06T20:29:33.657Z,60.33
2023-02-06T20:32:00.881Z,64.28
2023-02-06T20:34:28.941Z,58.10
2023-02-06T20:36:56.083Z,55.13
2023-02-06T20:39:23.317Z,56.10
2023-02-06T20:41:51.001Z,63.83
2023-02-06T20:44:19.337Z,60.40
2023-02-06T20:46:46.663Z,61.42
2023-02-06T20:49:31.626Z,68.70
2023-02-06T20:51:58.773Z,65.78
2023-02-06T20:54:25.924Z,63.55
2023-02-06T20:56:52.811Z,63.95
2023-02-06T20:59:21.048Z,59.45
2023-02-06T21:01:47.759Z,56.72
2023-02-06T21:04:16.270Z,58.25
2023-02-06T21:06:43.214Z,72.60
2023-02-06T21:09:10.594Z,61.97
2023-02-06T21:11:40.786Z,63.25
2023-02-06T21:14:07.879Z,62.47
2023-02-06T21:16:35.929Z,59.35
2023-02-06T21:19:04.743Z,68.25
2023-02-06T21:21:32.218Z,59.72
2023-02-06T21:23:59.117Z,64.22
2023-02-06T21:26:26.871Z,63.30
2023-02-06T21:28:53.915Z,65.60
2023-02-06T21:31:24.200Z,67.80
2023-02-06T21:33:52.525Z,75.68
2023-02-06T21:36:21.244Z,68.38
2023-02-06T21:38:47.997Z,72.20
2023-02-06T21:41:17.728Z,74.15
2023-02-06T21:43:45.679Z,68.80
2023-02-06T21:46:13.317Z,67.75
2023-02-06T21:48:41.472Z,67.05
2023-02-06T21:51:09.685Z,77.65
2023-02-06T21:53:36.661Z,70.60
2023-02-06T21:56:14.288Z,73.97
2023-02-06T21:58:40.946Z,74.97
2023-02-06T22:01:09.004Z,73.53
2023-02-06T22:03:36.529Z,65.07
2023-02-06T22:06:14.079Z,72.50
2023-02-06T22:09:05.222Z,83.05
2023-02-06T22:11:32.297Z,64.15
2023-02-06T22:14:01.532Z,71.50
2023-02-06T22:16:29.443Z,68.00
2023-02-06T22:18:56.942Z,73.20
2023-02-06T22:21:26.374Z,68.50
2023-02-06T22:23:57.161Z,75.05
2023-02-06T22:26:24.214Z,72.47
2023-02-06T22:28:51.213Z,72.50
2023-02-06T22:31:24.307Z,62.67
2023-02-06T22:33:51.199Z,69.60
2023-02-06T22:36:21.822Z,67.40
2023-02-06T22:38:53.730Z,69.53
2023-02-06T22:41:20.653Z,64.72
2023-02-06T22:43:49.097Z,66.57
2023-02-06T22:46:21.640Z,61.00
2023-02-06T22:48:48.352Z,72.18
2023-02-06T22:51:15.073Z,69.25
2023-02-06T22:53:41.771Z,75.93
2023-02-06T22:56:32.316Z,69.00
2023-02-06T22:59:16.975Z,74.80
2023-02-06T23:01:48.141Z,73.85
2023-02-06T23:04:18.069Z,81.78
2023-02-06T23:06:45.411Z,74.97
2023-02-06T23:09:21.178Z,79.30
2023-02-06T23:11:48.689Z,73.85
2023-02-06T23:14:16.777Z,78.72
2023-02-06T23:16:44.061Z,80.53
2023-02-06T23:19:12.820Z,92.18
2023-02-06T23:21:42.222Z,79.80
2023-02-06T23:24:10.293Z,85.90
2023-02-06T23:26:37.692Z,80.18
2023-02-06T23:29:07.701Z,84.40
2023-02-06T23:31:35.574Z,94.32
2023-02-06T23:34:02.283Z,81.82
2023-02-06T23:36:29.518Z,89.28
2023-02-06T23:38:56.538Z,90.03
2023-02-06T23:41:26.199Z,76.88
2023-02-06T23:43:55.651Z,80.43
2023-02-06T23:46:23.677Z,91.68
2023-02-06T23:48:51.385Z,88.60
2023-02-06T23:51:19.105Z,87.85
2023-02-06T23:53:45.753Z,84.38
2023-02-06T23:56:14.561Z,87.65
2023-02-06T23:58:41.693Z,91.13
